createdAt,value
2018-11-26T00:00:36.784Z,99.90
2018-11-26T00:03:11.583Z,99.90
2018-11-26T00:05:42.891Z,99.90
2018-11-26T00:08:14.395Z,99.90
2018-11-26T00:11:56.800Z,99.90
2018-11-26T00:14:27.682Z,99.90
2018-11-26T00:16:58.485Z,99.90
2018-11-26T00:19:29.680Z,99.90
2018-11-26T00:22:00.979Z,99.90
2018-11-26T00:24:31.831Z,99.90
2018-11-26T00:27:02.841Z,99.90
2018-11-26T00:29:34.031Z,99.90
2018-11-26T00:32:05.928Z,99.90
2018-11-26T00:34:36.902Z,99.90
2018-11-26T00:37:08.032Z,99.90
2018-11-26T00:39:38.890Z,99.90
2018-11-26T00:42:11.146Z,99.90
2018-11-26T00:44:42.075Z,99.90
2018-11-26T00:47:12.994Z,99.90
2018-11-26T00:49:43.910Z,99.90
2018-11-26T00:52:15.934Z,99.90
2018-11-26T00:54:48.114Z,99.90
2018-11-26T00:57:19.071Z,99.90
2018-11-26T00:59:50.165Z,99.90
2018-11-26T01:02:22.763Z,99.90
2018-11-26T01:04:53.704Z,99.90
2018-11-26T01:07:24.605Z,99.90
2018-11-26T01:09:55.542Z,99.90
2018-11-26T01:12:26.368Z,99.90
2018-11-26T01:14:57.398Z,99.90
2018-11-26T01:17:28.271Z,99.90
2018-11-26T01:19:59.124Z,99.90
2018-11-26T01:22:30.009Z,99.90
2018-11-26T01:25:00.872Z,99.90
2018-11-26T01:27:31.798Z,99.90
2018-11-26T01:30:02.725Z,99.90
2018-11-26T01:32:33.689Z,99.90
2018-11-26T01:35:04.576Z,99.90
2018-11-26T01:37:35.589Z,99.90
2018-11-26T01:40:13.000Z,99.90
2018-11-26T01:42:44.179Z,99.90
2018-11-26T01:45:15.056Z,99.90
2018-11-26T01:47:45.964Z,99.90
2018-11-26T01:50:17.472Z,99.90
2018-11-26T01:52:48.400Z,99.90
2018-11-26T01:55:19.738Z,99.90
2018-11-26T01:57:50.592Z,99.90
2018-11-26T02:00:24.476Z,99.90
2018-11-26T02:02:55.847Z,99.90
2018-11-26T02:05:26.694Z,99.90
2018-11-26T02:07:57.601Z,99.90
2018-11-26T02:10:28.452Z,99.90
2018-11-26T02:12:59.371Z,99.90
2018-11-26T02:15:39.576Z,99.90
2018-11-26T02:18:11.352Z,99.90
2018-11-26T02:20:42.199Z,99.90
2018-11-26T02:23:13.365Z,99.90
2018-11-26T02:25:44.295Z,99.90
2018-11-26T02:28:15.416Z,99.90
2018-11-26T02:30:46.395Z,99.90
2018-11-26T02:33:17.152Z,99.90
2018-11-26T02:35:48.085Z,99.90
2018-11-26T02:38:19.103Z,99.90
2018-11-26T02:40:50.278Z,99.90
2018-11-26T02:43:21.145Z,99.90
2018-11-26T02:45:52.064Z,99.90
2018-11-26T02:48:22.918Z,99.90
2018-11-26T02:50:53.885Z,99.90
2018-11-26T02:53:24.759Z,99.90
2018-11-26T02:55:55.780Z,99.90
2018-11-26T02:58:26.990Z,99.90
2018-11-26T03:00:57.932Z,99.90
2018-11-26T03:03:29.363Z,99.90
2018-11-26T03:06:00.320Z,99.90
2018-11-26T03:08:31.098Z,99.90
2018-11-26T03:11:01.961Z,99.90
2018-11-26T03:13:32.915Z,99.90
2018-11-26T03:16:03.775Z,99.90
2018-11-26T03:18:34.573Z,99.90
2018-11-26T03:21:05.424Z,99.90
2018-11-26T03:23:36.310Z,99.90
2018-11-26T03:26:07.656Z,99.90
2018-11-26T03:28:38.581Z,99.90
2018-11-26T03:31:10.156Z,99.90
2018-11-26T03:33:41.275Z,99.90
2018-11-26T03:36:12.223Z,99.90
2018-11-26T03:38:53.375Z,99.90
2018-11-26T03:41:25.100Z,99.90
2018-11-26T03:43:56.048Z,99.90
2018-11-26T03:46:27.422Z,99.90
2018-11-26T03:48:58.347Z,99.90
2018-11-26T03:51:29.343Z,99.90
2018-11-26T03:54:00.216Z,99.90
2018-11-26T03:56:31.089Z,99.90
2018-11-26T03:59:01.923Z,99.90
2018-11-26T04:01:32.864Z,99.90
2018-11-26T04:04:03.830Z,99.90
2018-11-26T04:06:34.921Z,99.90
2018-11-26T04:09:07.862Z,99.90
2018-11-26T04:11:40.223Z,99.90
2018-11-26T04:14:11.054Z,99.90
2018-11-26T04:16:42.023Z,99.90
2018-11-26T04:19:13.397Z,99.90
2018-11-26T04:21:44.318Z,99.90
2018-11-26T04:24:15.235Z,99.90
2018-11-26T04:26:46.110Z,99.90
2018-11-26T04:29:17.100Z,99.90
2018-11-26T04:31:47.999Z,99.90
2018-11-26T04:34:18.882Z,99.90
2018-11-26T04:36:49.858Z,99.90
2018-11-26T04:39:20.774Z,99.90
2018-11-26T04:41:51.777Z,99.90
2018-11-26T04:44:22.782Z,99.90
2018-11-26T04:46:54.729Z,99.90
2018-11-26T04:49:25.718Z,99.90
2018-11-26T04:51:56.678Z,99.90
2018-11-26T04:54:27.768Z,99.90
2018-11-26T04:56:58.731Z,99.90
2018-11-26T04:59:29.666Z,99.90
2018-11-26T05:02:00.540Z,99.90
2018-11-26T05:04:31.337Z,99.90
2018-11-26T05:07:02.198Z,99.90
2018-11-26T05:09:33.393Z,99.90
2018-11-26T05:12:04.228Z,99.90
2018-11-26T05:14:35.020Z,99.90
2018-11-26T05:17:06.083Z,99.90
2018-11-26T05:19:37.058Z,99.90
2018-11-26T05:22:07.980Z,99.90
2018-11-26T05:24:38.803Z,99.90
2018-11-26T05:27:09.627Z,99.90
2018-11-26T05:29:40.533Z,99.90
2018-11-26T05:32:12.346Z,99.90
2018-11-26T05:34:43.249Z,99.90
2018-11-26T05:37:14.068Z,99.90
2018-11-26T05:39:45.219Z,99.90
2018-11-26T05:42:16.207Z,99.90
2018-11-26T05:44:48.145Z,99.90
2018-11-26T05:47:19.035Z,99.90
2018-11-26T05:49:49.923Z,99.90
2018-11-26T05:52:21.737Z,99.90
2018-11-26T05:54:52.565Z,99.90
2018-11-26T05:57:24.393Z,99.90
2018-11-26T05:59:56.096Z,99.90
2018-11-26T06:02:27.195Z,99.90
2018-11-26T06:04:58.171Z,99.90
2018-11-26T06:07:29.396Z,99.90
2018-11-26T06:10:00.461Z,99.90
2018-11-26T06:12:31.492Z,99.90
2018-11-26T06:15:02.488Z,99.90
2018-11-26T06:17:34.627Z,99.90
2018-11-26T06:20:06.646Z,99.90
2018-11-26T06:22:37.715Z,99.90
2018-11-26T06:25:14.761Z,99.90
2018-11-26T06:27:46.564Z,99.90
2018-11-26T06:30:18.989Z,99.90
2018-11-26T06:32:50.071Z,99.90
2018-11-26T06:35:22.680Z,99.90
2018-11-26T06:37:54.147Z,99.90
2018-11-26T06:40:24.775Z,99.90
2018-11-26T06:42:57.228Z,99.90
2018-11-26T06:45:28.430Z,99.90
2018-11-26T06:47:59.834Z,99.90
2018-11-26T06:50:30.814Z,99.90
2018-11-26T06:53:01.942Z,99.90
2018-11-26T06:55:32.891Z,99.90
2018-11-26T06:58:03.916Z,99.90
2018-11-26T07:00:34.780Z,99.90
2018-11-26T07:03:05.937Z,99.90
2018-11-26T07:05:36.866Z,99.90
2018-11-26T07:08:07.776Z,99.90
2018-11-26T07:10:38.811Z,99.90
2018-11-26T07:13:09.907Z,99.90
2018-11-26T07:15:41.046Z,99.90
2018-11-26T07:18:12.867Z,99.90
2018-11-26T07:20:43.842Z,99.90
2018-11-26T07:23:14.826Z,99.90
2018-11-26T07:25:45.696Z,99.90
2018-11-26T07:28:16.686Z,99.90
2018-11-26T07:30:47.539Z,99.90
2018-11-26T07:33:18.391Z,99.90
2018-11-26T07:35:49.223Z,99.90
2018-11-26T07:38:20.582Z,99.90
2018-11-26T07:40:51.591Z,99.90
2018-11-26T07:43:22.486Z,99.90
2018-11-26T07:45:53.306Z,99.90
2018-11-26T07:48:24.150Z,99.90
2018-11-26T07:50:55.209Z,99.90
2018-11-26T07:53:26.223Z,99.90
2018-11-26T07:55:57.236Z,99.90
2018-11-26T07:58:28.066Z,99.90
2018-11-26T08:00:59.076Z,99.90
2018-11-26T08:03:30.205Z,99.90
2018-11-26T08:06:01.225Z,99.90
2018-11-26T08:08:32.326Z,99.90
2018-11-26T08:11:03.294Z,99.90
2018-11-26T08:13:34.363Z,99.90
2018-11-26T08:16:05.548Z,99.90
2018-11-26T08:18:36.401Z,99.90
2018-11-26T08:21:07.875Z,99.90
2018-11-26T08:23:39.005Z,99.90
2018-11-26T08:26:09.909Z,99.90
2018-11-26T08:28:41.048Z,99.90
2018-11-26T08:31:12.008Z,99.90
2018-11-26T08:33:42.955Z,99.90
2018-11-26T08:36:14.391Z,99.90
2018-11-26T08:38:46.404Z,99.90
2018-11-26T08:41:19.247Z,99.90
2018-11-26T08:43:57.189Z,99.90
2018-11-26T08:46:32.415Z,99.90
2018-11-26T08:49:07.372Z,99.90
2018-11-26T08:51:38.586Z,99.90
2018-11-26T08:54:09.766Z,99.90
2018-11-26T08:56:40.702Z,99.90
2018-11-26T08:59:15.729Z,99.90
2018-11-26T09:01:50.288Z,99.90
2018-11-26T09:04:24.004Z,99.90
2018-11-26T09:06:55.335Z,99.90
2018-11-26T09:09:26.723Z,99.90
2018-11-26T09:11:57.460Z,99.90
2018-11-26T09:14:28.398Z,99.90
2018-11-26T09:16:59.358Z,99.80
2018-11-26T09:19:30.430Z,99.70
2018-11-26T09:22:01.485Z,99.50
2018-11-26T09:24:32.494Z,99.40
2018-11-26T09:27:09.719Z,99.60
2018-11-26T09:29:34.621Z,99.20
2018-11-26T09:32:05.664Z,99.00
2018-11-26T09:34:36.723Z,99.30
2018-11-26T09:37:07.770Z,99.40
2018-11-26T09:39:38.809Z,99.30
2018-11-26T09:42:09.638Z,99.70
2018-11-26T09:44:40.682Z,99.60
2018-11-26T09:47:11.542Z,99.50
2018-11-26T09:49:42.487Z,99.40
2018-11-26T09:52:13.612Z,99.60
2018-11-26T09:54:44.482Z,99.60
2018-11-26T09:57:15.496Z,99.20
2018-11-26T09:59:46.391Z,99.20
2018-11-26T10:02:17.378Z,99.60
2018-11-26T10:04:48.316Z,99.60
2018-11-26T10:07:19.372Z,99.50
2018-11-26T10:09:53.935Z,99.80
2018-11-26T10:12:24.968Z,99.90
2018-11-26T10:14:55.874Z,99.10
2018-11-26T10:17:26.803Z,99.40
2018-11-26T10:19:57.823Z,99.90
2018-11-26T10:22:28.812Z,99.40
2018-11-26T10:25:05.782Z,99.50
2018-11-26T10:27:31.277Z,99.10
2018-11-26T10:30:02.322Z,98.60
2018-11-26T10:32:33.218Z,98.90
2018-11-26T10:35:04.349Z,98.70
2018-11-26T10:37:35.437Z,98.90
2018-11-26T10:40:10.357Z,99.00
2018-11-26T10:42:41.455Z,99.20
2018-11-26T10:45:15.490Z,98.80
2018-11-26T10:47:46.459Z,98.70
2018-11-26T10:50:21.341Z,98.60
2018-11-26T10:52:56.044Z,98.50
2018-11-26T10:55:32.300Z,99.00
2018-11-26T10:58:03.410Z,99.10
2018-11-26T11:00:40.701Z,99.00
2018-11-26T11:03:11.825Z,99.10
2018-11-26T11:05:42.854Z,99.20
2018-11-26T11:08:13.857Z,99.20
2018-11-26T11:12:13.915Z,99.10
2018-11-26T11:14:44.734Z,99.10
2018-11-26T11:17:15.783Z,98.90
2018-11-26T11:19:46.766Z,98.80
2018-11-26T11:22:17.806Z,98.60
2018-11-26T11:24:48.974Z,98.80
2018-11-26T11:27:19.988Z,98.90
2018-11-26T11:29:50.889Z,99.10
2018-11-26T11:32:21.925Z,98.70
2018-11-26T11:34:52.933Z,98.70
2018-11-26T11:37:23.966Z,98.90
2018-11-26T11:39:55.060Z,99.00
2018-11-26T11:42:26.029Z,98.90
2018-11-26T11:44:56.869Z,99.20
2018-11-26T11:47:27.811Z,99.30
2018-11-26T11:49:58.828Z,99.60
2018-11-26T11:52:29.889Z,99.70
2018-11-26T11:55:01.225Z,99.10
2018-11-26T11:57:32.290Z,98.70
2018-11-26T12:00:03.463Z,98.40
2018-11-26T12:02:39.666Z,98.30
2018-11-26T12:05:13.319Z,98.40
2018-11-26T12:07:44.437Z,98.60
2018-11-26T12:10:15.559Z,98.20
2018-11-26T12:12:46.813Z,97.70
2018-11-26T12:15:18.657Z,97.70
2018-11-26T12:17:50.592Z,97.90
2018-11-26T12:20:21.682Z,98.20
2018-11-26T12:22:52.849Z,98.00
2018-11-26T12:25:24.373Z,97.90
2018-11-26T12:27:55.410Z,98.30
2018-11-26T12:30:32.170Z,98.40
2018-11-26T12:33:03.345Z,98.60
2018-11-26T12:35:34.660Z,98.60
2018-11-26T12:38:06.041Z,98.70
2018-11-26T12:40:37.361Z,98.10
2018-11-26T12:43:08.893Z,98.00
2018-11-26T12:45:40.127Z,97.60
2018-11-26T12:48:11.570Z,97.70
2018-11-26T12:50:43.264Z,97.80
2018-11-26T12:53:14.586Z,98.00
2018-11-26T12:55:45.930Z,97.90
2018-11-26T12:58:17.036Z,98.00
2018-11-26T13:00:48.179Z,97.70
2018-11-26T13:03:19.429Z,97.90
2018-11-26T13:05:50.558Z,98.30
2018-11-26T13:08:23.429Z,98.10
2018-11-26T13:10:54.539Z,95.40
2018-11-26T13:13:25.667Z,94.20
2018-11-26T13:15:56.840Z,93.40
2018-11-26T13:18:27.866Z,93.00
2018-11-26T13:20:58.827Z,92.80
2018-11-26T13:23:29.996Z,92.40
2018-11-26T13:26:01.434Z,92.50
2018-11-26T13:28:32.934Z,92.40
2018-11-26T13:31:04.091Z,92.10
2018-11-26T13:33:35.063Z,92.00
2018-11-26T13:36:06.452Z,91.60
2018-11-26T13:38:37.537Z,91.70
2018-11-26T13:41:08.795Z,91.50
2018-11-26T13:43:39.725Z,91.30
2018-11-26T13:46:10.790Z,91.20
2018-11-26T13:48:41.679Z,91.20
2018-11-26T13:51:12.965Z,90.90
2018-11-26T13:53:44.044Z,90.80
2018-11-26T13:56:15.011Z,90.70
2018-11-26T13:58:46.191Z,90.80
2018-11-26T14:01:17.190Z,90.80
2018-11-26T14:03:48.674Z,90.80
2018-11-26T14:06:19.833Z,90.70
2018-11-26T14:08:50.982Z,91.10
2018-11-26T14:11:22.566Z,90.70
2018-11-26T14:13:54.023Z,90.60
2018-11-26T14:16:25.597Z,90.80
2018-11-26T14:18:56.842Z,90.70
2018-11-26T14:21:28.281Z,90.60
2018-11-26T14:23:59.447Z,90.50
2018-11-26T14:26:30.615Z,90.80
2018-11-26T14:29:01.772Z,90.70
2018-11-26T14:31:32.903Z,90.70
2018-11-26T14:34:04.046Z,90.40
2018-11-26T14:36:35.134Z,90.50
2018-11-26T14:39:08.501Z,90.50
2018-11-26T14:41:39.542Z,90.50
2018-11-26T14:44:10.650Z,90.50
2018-11-26T14:46:41.621Z,90.30
2018-11-26T14:49:12.650Z,90.30
2018-11-26T14:51:43.700Z,90.60
2018-11-26T14:54:15.019Z,90.50
2018-11-26T14:56:46.175Z,90.70
2018-11-26T14:59:17.378Z,90.80
2018-11-26T15:01:48.617Z,90.80
2018-11-26T15:04:19.580Z,90.90
2018-11-26T15:06:50.797Z,90.90
2018-11-26T15:09:22.251Z,90.90
2018-11-26T15:11:53.147Z,90.90
2018-11-26T15:14:24.338Z,91.10
2018-11-26T15:16:55.746Z,91.20
2018-11-26T15:19:26.959Z,91.40
2018-11-26T15:21:58.297Z,91.60
2018-11-26T15:24:29.453Z,91.70
2018-11-26T15:27:01.865Z,91.70
2018-11-26T15:29:33.515Z,91.80
2018-11-26T15:32:04.803Z,91.80
2018-11-26T15:34:36.128Z,91.70
2018-11-26T15:37:07.344Z,91.80
2018-11-26T15:39:38.462Z,91.80
2018-11-26T15:42:10.752Z,91.80
2018-11-26T15:44:41.952Z,91.80
2018-11-26T15:47:13.167Z,92.00
2018-11-26T15:49:44.411Z,92.00
2018-11-26T15:52:15.510Z,92.00
2018-11-26T15:54:46.973Z,92.10
2018-11-26T15:57:18.122Z,92.00
2018-11-26T15:59:49.355Z,92.00
2018-11-26T16:02:20.997Z,92.10
2018-11-26T16:04:52.065Z,92.20
2018-11-26T16:07:23.450Z,92.30
2018-11-26T16:09:54.579Z,92.30
2018-11-26T16:12:27.491Z,92.20
2018-11-26T16:14:58.469Z,92.20
2018-11-26T16:17:29.571Z,92.20
2018-11-26T16:20:00.930Z,92.10
2018-11-26T16:22:32.230Z,92.00
2018-11-26T16:25:03.568Z,92.10
2018-11-26T16:27:34.540Z,92.10
2018-11-26T16:30:07.098Z,92.40
2018-11-26T16:32:39.612Z,92.60
2018-11-26T16:35:13.765Z,92.80
2018-11-26T16:37:45.515Z,93.00
2018-11-26T16:40:18.081Z,93.10
2018-11-26T16:42:49.389Z,93.30
2018-11-26T16:45:22.448Z,93.30
2018-11-26T16:47:54.886Z,93.50
2018-11-26T16:50:29.570Z,93.50
2018-11-26T16:53:00.885Z,93.70
2018-11-26T16:55:31.836Z,93.70
2018-11-26T16:58:03.056Z,94.10
2018-11-26T17:00:34.260Z,94.20
2018-11-26T17:03:05.584Z,94.40
2018-11-26T17:05:39.557Z,94.70
2018-11-26T17:08:14.504Z,94.80
2018-11-26T17:10:45.879Z,94.80
2018-11-26T17:13:17.690Z,94.80
2018-11-26T17:15:48.954Z,94.90
2018-11-26T17:18:20.120Z,95.10
2018-11-26T17:20:51.268Z,95.20
2018-11-26T17:23:22.442Z,95.20
2018-11-26T17:25:53.588Z,95.30
2018-11-26T17:28:24.693Z,95.20
2018-11-26T17:30:55.911Z,95.20
2018-11-26T17:33:26.907Z,95.20
2018-11-26T17:35:58.140Z,95.10
2018-11-26T17:38:29.373Z,95.30
2018-11-26T17:41:00.591Z,95.40
2018-11-26T17:43:31.823Z,95.40
2018-11-26T17:46:03.372Z,95.50
2018-11-26T17:48:34.785Z,95.50
2018-11-26T17:51:06.681Z,95.80
2018-11-26T17:53:38.231Z,96.00
2018-11-26T17:56:10.012Z,96.10
2018-11-26T17:58:41.791Z,96.30
2018-11-26T18:01:23.613Z,96.60
2018-11-26T18:03:55.169Z,97.00
2018-11-26T18:06:26.648Z,97.10
2018-11-26T18:08:59.611Z,97.00
2018-11-26T18:11:31.638Z,96.90
2018-11-26T18:14:04.102Z,97.00
2018-11-26T18:16:36.201Z,97.20
2018-11-26T18:19:08.935Z,97.00
2018-11-26T18:21:40.445Z,96.90
2018-11-26T18:24:12.421Z,96.90
2018-11-26T18:26:43.797Z,96.80
2018-11-26T18:29:15.323Z,96.70
2018-11-26T18:31:46.581Z,97.00
2018-11-26T18:34:18.810Z,97.20
2018-11-26T18:36:50.058Z,97.40
2018-11-26T18:39:24.116Z,97.40
2018-11-26T18:41:56.252Z,97.40
2018-11-26T18:44:27.522Z,97.50
2018-11-26T18:46:58.631Z,97.60
2018-11-26T18:49:29.809Z,97.90
2018-11-26T18:52:01.262Z,98.10
2018-11-26T18:54:32.431Z,98.00
2018-11-26T18:57:03.817Z,98.00
2018-11-26T18:59:34.970Z,97.90
2018-11-26T19:02:06.338Z,97.60
2018-11-26T19:04:37.387Z,97.70
2018-11-26T19:07:09.156Z,97.70
2018-11-26T19:09:40.301Z,97.70
2018-11-26T19:12:11.746Z,97.70
2018-11-26T19:14:42.833Z,97.80
2018-11-26T19:17:14.794Z,97.60
2018-11-26T19:19:46.080Z,97.90
2018-11-26T19:22:17.362Z,98.00
2018-11-26T19:24:48.711Z,98.20
2018-11-26T19:27:19.918Z,98.00
2018-11-26T19:29:51.421Z,98.20
2018-11-26T19:32:24.709Z,98.30
2018-11-26T19:34:56.047Z,99.00
2018-11-26T19:37:27.285Z,98.80
2018-11-26T19:39:58.561Z,98.80
2018-11-26T19:42:29.801Z,98.90
2018-11-26T19:45:01.352Z,98.60
2018-11-26T19:47:32.961Z,98.60
2018-11-26T19:50:04.138Z,98.60
2018-11-26T19:52:36.517Z,98.60
2018-11-26T19:55:13.109Z,98.40
2018-11-26T19:57:44.391Z,98.10
2018-11-26T20:00:18.969Z,98.10
2018-11-26T20:02:59.512Z,98.00
2018-11-26T20:06:33.696Z,97.80
2018-11-26T20:09:05.768Z,98.00
2018-11-26T20:11:37.690Z,98.00
2018-11-26T20:14:09.033Z,97.90
2018-11-26T20:16:43.676Z,97.90
2018-11-26T20:19:15.098Z,98.10
2018-11-26T20:21:46.518Z,98.10
2018-11-26T20:24:17.794Z,98.10
2018-11-26T20:26:50.659Z,98.30
2018-11-26T20:29:21.847Z,98.40
2018-11-26T20:31:54.169Z,98.80
2018-11-26T20:34:25.192Z,99.20
2018-11-26T20:36:57.251Z,99.10
2018-11-26T20:39:28.249Z,99.20
2018-11-26T20:41:59.531Z,99.20
2018-11-26T20:44:32.870Z,99.00
2018-11-26T20:47:04.999Z,99.10
2018-11-26T20:49:36.324Z,99.40
2018-11-26T20:52:11.897Z,99.70
2018-11-26T20:54:43.243Z,99.90
2018-11-26T20:57:15.476Z,99.30
2018-11-26T20:59:46.913Z,99.20
2018-11-26T21:02:20.039Z,99.30
2018-11-26T21:04:51.128Z,99.40
2018-11-26T21:07:22.315Z,99.30
2018-11-26T21:09:56.296Z,99.70
2018-11-26T21:12:27.862Z,99.90
2018-11-26T21:15:00.242Z,99.90
2018-11-26T21:17:33.927Z,99.70
2018-11-26T21:20:08.781Z,99.60
2018-11-26T21:22:40.409Z,99.10
2018-11-26T21:25:14.781Z,98.60
2018-11-26T21:27:46.184Z,98.40
2018-11-26T21:30:22.154Z,98.10
2018-11-26T21:32:54.294Z,98.20
2018-11-26T21:35:25.873Z,98.40
2018-11-26T21:37:57.537Z,98.20
2018-11-26T21:40:28.843Z,98.10
2018-11-26T21:43:00.824Z,98.30
2018-11-26T21:45:36.283Z,98.30
2018-11-26T21:48:07.522Z,98.60
2018-11-26T21:50:39.162Z,98.80
2018-11-26T21:53:10.516Z,98.90
2018-11-26T21:55:42.252Z,99.00
2018-11-26T21:58:13.719Z,99.40
2018-11-26T22:00:45.583Z,99.30
2018-11-26T22:03:17.331Z,99.60
2018-11-26T22:05:49.571Z,99.90
2018-11-26T22:08:20.770Z,99.90
2018-11-26T22:10:52.446Z,99.90
2018-11-26T22:13:24.038Z,99.90
2018-11-26T22:15:55.588Z,99.90
2018-11-26T22:18:26.778Z,99.90
2018-11-26T22:20:58.618Z,99.90
2018-11-26T22:23:30.067Z,99.90
2018-11-26T22:26:01.468Z,99.90
2018-11-26T22:28:32.949Z,99.90
2018-11-26T22:31:04.999Z,99.90
2018-11-26T22:33:36.059Z,99.90
2018-11-26T22:36:07.851Z,99.90
2018-11-26T22:38:40.160Z,99.90
2018-11-26T22:41:11.409Z,98.70
2018-11-26T22:43:42.852Z,98.30
2018-11-26T22:46:15.920Z,97.90
2018-11-26T22:48:45.062Z,98.40
2018-11-26T22:51:19.118Z,98.20
2018-11-26T22:53:51.144Z,97.50
2018-11-26T22:56:22.113Z,97.80
2018-11-26T22:58:54.617Z,97.90
2018-11-26T23:01:25.908Z,98.40
2018-11-26T23:03:57.101Z,98.60
2018-11-26T23:06:29.375Z,98.50
2018-11-26T23:09:01.791Z,98.50
2018-11-26T23:11:32.782Z,98.60
2018-11-26T23:14:04.309Z,99.50
2018-11-26T23:16:35.352Z,99.60
2018-11-26T23:19:06.657Z,98.70
2018-11-26T23:21:37.799Z,98.50
2018-11-26T23:24:08.811Z,98.50
2018-11-26T23:26:40.424Z,98.60
2018-11-26T23:29:12.020Z,98.90
2018-11-26T23:31:43.181Z,99.20
2018-11-26T23:34:14.503Z,99.40
2018-11-26T23:36:45.625Z,99.40
2018-11-26T23:39:16.685Z,99.10
2018-11-26T23:41:47.670Z,99.60
2018-11-26T23:44:18.704Z,99.90
2018-11-26T23:46:49.817Z,99.60
2018-11-26T23:49:21.100Z,99.40
2018-11-26T23:51:52.253Z,99.70
2018-11-26T23:54:23.189Z,99.90
2018-11-26T23:56:55.029Z,99.90
2018-11-26T23:59:26.382Z,99.90
